createdAt,value
2022-10-25T00:01:46.184Z,1.20
2022-10-25T00:04:14.687Z,1.00
2022-10-25T00:06:42.644Z,1.95
2022-10-25T00:09:10.579Z,0.70
2022-10-25T00:11:37.434Z,0.80
2022-10-25T00:14:07.263Z,1.20
2022-10-25T00:16:39.757Z,0.95
2022-10-25T00:19:06.814Z,0.90
2022-10-25T00:21:33.740Z,0.75
2022-10-25T00:24:00.708Z,0.82
2022-10-25T00:26:27.714Z,0.80
2022-10-25T00:28:55.866Z,0.95
2022-10-25T00:31:23.994Z,0.98
2022-10-25T00:33:51.306Z,1.08
2022-10-25T00:36:24.123Z,0.85
2022-10-25T00:38:51.877Z,0.75
2022-10-25T00:41:23.192Z,1.05
2022-10-25T00:43:57.163Z,0.93
2022-10-25T00:46:31.181Z,0.90
2022-10-25T00:49:14.103Z,1.27
2022-10-25T00:52:07.098Z,1.10
2022-10-25T00:54:44.414Z,0.63
2022-10-25T00:57:29.752Z,1.10
2022-10-25T00:59:57.147Z,0.77
2022-10-25T01:02:24.583Z,0.75
2022-10-25T01:04:53.716Z,1.10
2022-10-25T01:07:20.680Z,1.00
2022-10-25T01:09:48.439Z,0.90
2022-10-25T01:12:15.365Z,0.80
2022-10-25T01:14:47.477Z,1.25
2022-10-25T01:18:08.511Z,0.80
2022-10-25T01:21:12.659Z,0.70
2022-10-25T01:24:25.285Z,1.52
2022-10-25T01:27:13.819Z,1.10
2022-10-25T01:30:13.195Z,0.73
2022-10-25T01:32:55.737Z,0.90
2022-10-25T01:36:02.267Z,1.17
2022-10-25T01:38:55.715Z,1.67
2022-10-25T01:42:00.254Z,0.85
2022-10-25T01:45:05.099Z,1.20
2022-10-25T01:48:16.028Z,0.60
2022-10-25T01:50:47.439Z,0.70
2022-10-25T01:53:15.163Z,0.82
2022-10-25T01:56:02.062Z,0.55
2022-10-25T01:59:15.177Z,0.70
2022-10-25T02:02:07.168Z,0.70
2022-10-25T02:04:58.941Z,1.05
2022-10-25T02:07:43.167Z,1.02
2022-10-25T02:10:25.994Z,1.42
2022-10-25T02:13:35.475Z,0.50
2022-10-25T02:16:12.164Z,1.48
2022-10-25T02:18:46.347Z,0.82
2022-10-25T02:21:16.309Z,0.60
2022-10-25T02:23:44.303Z,0.70
2022-10-25T02:26:12.577Z,1.08
2022-10-25T02:28:42.123Z,0.73
2022-10-25T02:31:15.529Z,0.75
2022-10-25T02:33:46.062Z,0.73
2022-10-25T02:36:18.792Z,0.80
2022-10-25T02:38:47.987Z,0.70
2022-10-25T02:45:24.745Z,1.00
2022-10-25T02:47:51.572Z,0.82
2022-10-25T02:50:18.744Z,0.52
2022-10-25T02:52:46.109Z,0.65
2022-10-25T02:55:13.357Z,0.50
2022-10-25T02:57:40.293Z,0.88
2022-10-25T03:00:09.156Z,0.75
2022-10-25T03:02:36.022Z,0.75
2022-10-25T03:05:02.893Z,0.70
2022-10-25T03:07:29.773Z,0.82
2022-10-25T03:09:56.644Z,0.60
2022-10-25T03:12:23.667Z,0.60
2022-10-25T03:14:50.494Z,0.73
2022-10-25T03:17:17.357Z,0.50
2022-10-25T03:19:44.180Z,0.70
2022-10-25T03:22:11.111Z,1.13
2022-10-25T03:24:38.056Z,0.52
2022-10-25T03:27:04.985Z,1.40
2022-10-25T03:29:31.853Z,0.50
2022-10-25T03:31:58.695Z,0.65
2022-10-25T03:34:25.715Z,0.60
2022-10-25T03:36:52.570Z,1.10
2022-10-25T03:39:19.452Z,0.75
2022-10-25T03:41:46.309Z,1.25
2022-10-25T03:44:13.124Z,0.75
2022-10-25T03:46:40.045Z,0.98
2022-10-25T03:49:07.420Z,0.60
2022-10-25T03:51:34.332Z,0.98
2022-10-25T03:54:01.220Z,0.70
2022-10-25T03:56:28.176Z,0.63
2022-10-25T03:58:55.058Z,0.50
2022-10-25T04:01:22.024Z,0.90
2022-10-25T04:03:49.068Z,0.63
2022-10-25T04:06:15.962Z,0.50
2022-10-25T04:08:42.816Z,1.20
2022-10-25T04:11:09.658Z,0.63
2022-10-25T04:13:36.504Z,0.75
2022-10-25T04:16:08.906Z,0.63
2022-10-25T04:18:36.365Z,0.60
2022-10-25T04:21:03.274Z,0.70
2022-10-25T04:23:31.332Z,0.60
2022-10-25T04:25:58.480Z,0.60
2022-10-25T04:28:29.775Z,1.08
2022-10-25T04:30:56.639Z,0.60
2022-10-25T04:33:23.477Z,0.75
2022-10-25T04:35:57.346Z,0.60
2022-10-25T04:38:25.279Z,0.82
2022-10-25T04:40:57.098Z,0.60
2022-10-25T04:43:26.687Z,0.70
2022-10-25T04:45:55.043Z,0.77
2022-10-25T04:48:21.977Z,0.70
2022-10-25T04:50:48.825Z,0.82
2022-10-25T04:53:15.765Z,1.27
2022-10-25T04:55:43.128Z,0.95
2022-10-25T04:58:10.637Z,1.23
2022-10-25T05:00:37.451Z,0.70
2022-10-25T05:03:07.260Z,0.70
2022-10-25T05:05:36.253Z,0.80
2022-10-25T05:08:03.174Z,0.73
2022-10-25T05:10:31.444Z,0.60
2022-10-25T05:13:02.559Z,0.70
2022-10-25T05:15:30.135Z,0.60
2022-10-25T05:18:03.729Z,0.40
2022-10-25T05:20:30.584Z,1.02
2022-10-25T05:22:57.410Z,0.60
2022-10-25T05:25:24.291Z,0.75
2022-10-25T05:27:51.109Z,0.88
2022-10-25T05:30:18.211Z,1.15
2022-10-25T05:32:45.334Z,0.75
2022-10-25T05:35:12.392Z,0.77
2022-10-25T05:37:39.300Z,0.80
2022-10-25T05:40:07.043Z,0.40
2022-10-25T05:42:33.897Z,0.65
2022-10-25T05:45:00.755Z,0.40
2022-10-25T05:47:27.622Z,0.60
2022-10-25T05:49:54.468Z,0.50
2022-10-25T05:52:21.300Z,0.70
2022-10-25T05:54:48.360Z,0.50
2022-10-25T05:57:15.370Z,1.17
2022-10-25T05:59:42.188Z,1.02
2022-10-25T06:02:10.175Z,1.08
2022-10-25T06:04:37.195Z,2.05
2022-10-25T06:07:04.111Z,1.17
2022-10-25T06:09:31.150Z,0.50
2022-10-25T06:11:57.974Z,2.25
2022-10-25T06:14:24.956Z,3.40
2022-10-25T06:16:51.811Z,1.02
2022-10-25T06:19:18.683Z,0.85
2022-10-25T06:21:46.816Z,1.13
2022-10-25T06:24:13.687Z,0.70
2022-10-25T06:26:43.039Z,0.80
2022-10-25T06:29:09.902Z,0.57
2022-10-25T06:31:36.833Z,0.90
2022-10-25T06:34:04.266Z,0.73
2022-10-25T06:36:31.941Z,1.60
2022-10-25T06:39:05.297Z,1.23
2022-10-25T06:41:39.312Z,0.95
2022-10-25T06:44:07.340Z,1.63
2022-10-25T06:47:04.450Z,6.68
2022-10-25T06:49:24.680Z,0.75
2022-10-25T06:51:54.174Z,0.98
2022-10-25T06:54:21.083Z,1.02
2022-10-25T06:56:48.318Z,0.70
2022-10-25T06:59:15.199Z,1.42
2022-10-25T07:01:42.112Z,1.10
2022-10-25T07:04:09.026Z,2.20
2022-10-25T07:06:36.438Z,1.77
2022-10-25T07:09:05.648Z,4.80
2022-10-25T07:11:33.371Z,2.20
2022-10-25T07:14:04.243Z,1.85
2022-10-25T07:16:31.726Z,3.35
2022-10-25T07:19:04.248Z,1.50
2022-10-25T07:21:33.720Z,0.95
2022-10-25T07:24:01.030Z,6.05
2022-10-25T07:26:34.316Z,1.75
2022-10-25T07:29:03.853Z,3.75
2022-10-25T07:31:41.074Z,7.03
2022-10-25T07:34:08.005Z,5.50
2022-10-25T07:36:35.023Z,4.30
2022-10-25T07:39:07.342Z,2.45
2022-10-25T07:41:34.276Z,1.75
2022-10-25T07:44:01.249Z,2.88
2022-10-25T07:46:28.156Z,2.83
2022-10-25T07:48:55.070Z,5.10
2022-10-25T07:51:22.199Z,2.78
2022-10-25T07:53:49.961Z,3.22
2022-10-25T07:56:23.590Z,2.42
2022-10-25T07:58:54.192Z,6.30
2022-10-25T08:01:27.043Z,6.22
2022-10-25T08:03:56.422Z,5.40
2022-10-25T08:06:26.731Z,7.45
2022-10-25T08:08:54.292Z,3.60
2022-10-25T08:11:23.746Z,4.30
2022-10-25T08:13:51.056Z,3.45
2022-10-25T08:16:18.836Z,2.15
2022-10-25T08:18:46.296Z,2.50
2022-10-25T08:21:15.735Z,2.40
2022-10-25T08:23:45.624Z,3.80
2022-10-25T08:26:12.614Z,3.58
2022-10-25T08:28:39.489Z,3.22
2022-10-25T08:31:06.622Z,3.60
2022-10-25T08:33:34.063Z,3.15
2022-10-25T08:36:04.307Z,3.85
2022-10-25T08:38:31.310Z,5.47
2022-10-25T08:41:25.614Z,2.67
2022-10-25T08:44:08.725Z,5.07
2022-10-25T08:47:09.088Z,5.88
2022-10-25T08:50:11.513Z,2.65
2022-10-25T08:52:53.720Z,4.60
2022-10-25T08:55:38.880Z,3.20
2022-10-25T08:58:35.743Z,3.50
2022-10-25T09:01:16.365Z,7.90
2022-10-25T09:03:43.411Z,6.50
2022-10-25T09:06:34.346Z,4.00
2022-10-25T09:09:26.131Z,7.65
2022-10-25T09:12:19.186Z,5.97
2022-10-25T09:14:55.477Z,5.13
2022-10-25T09:17:53.696Z,8.85
2022-10-25T09:20:32.740Z,5.85
2022-10-25T09:23:16.436Z,5.80
2022-10-25T09:26:09.381Z,3.45
2022-10-25T09:28:57.944Z,5.13
2022-10-25T09:31:25.864Z,5.53
2022-10-25T09:34:04.050Z,4.47
2022-10-25T09:36:47.243Z,5.82
2022-10-25T09:39:23.109Z,3.25
2022-10-25T09:41:54.504Z,5.90
2022-10-25T09:44:44.198Z,4.65
2022-10-25T09:47:48.503Z,4.25
2022-10-25T09:50:37.309Z,4.88
2022-10-25T09:53:23.260Z,4.93
2022-10-25T09:56:00.237Z,8.35
2022-10-25T09:58:47.506Z,3.25
2022-10-25T10:01:26.597Z,4.57
2022-10-25T10:04:00.746Z,4.50
2022-10-25T10:06:40.523Z,7.75
2022-10-25T10:09:13.305Z,2.67
2022-10-25T10:11:41.925Z,7.57
2022-10-25T10:14:23.890Z,4.97
2022-10-25T10:16:56.387Z,7.20
2022-10-25T10:19:27.013Z,7.82
2022-10-25T10:22:12.553Z,5.55
2022-10-25T10:24:46.353Z,3.47
2022-10-25T10:27:22.406Z,4.60
2022-10-25T10:30:07.389Z,3.92
2022-10-25T10:32:38.141Z,4.93
2022-10-25T10:35:28.566Z,4.15
2022-10-25T10:38:21.266Z,2.38
2022-10-25T10:40:51.672Z,3.85
2022-10-25T10:43:32.467Z,8.88
2022-10-25T10:46:15.232Z,4.72
2022-10-25T10:48:53.871Z,2.60
2022-10-25T10:51:43.942Z,3.08
2022-10-25T10:54:34.418Z,4.93
2022-10-25T10:57:07.132Z,4.47
2022-10-25T10:59:56.352Z,1.35
2022-10-25T11:02:39.317Z,2.90
2022-10-25T11:05:24.377Z,2.22
2022-10-25T11:08:08.580Z,2.60
2022-10-25T11:10:41.122Z,2.60
2022-10-25T11:13:15.613Z,5.82
2022-10-25T11:16:36.946Z,1.92
2022-10-25T11:19:44.235Z,3.90
2022-10-25T11:22:49.340Z,2.70
2022-10-25T11:25:43.718Z,5.70
2022-10-25T11:28:19.382Z,5.72
2022-10-25T11:31:22.528Z,3.50
2022-10-25T11:34:07.781Z,3.75
2022-10-25T11:37:21.180Z,2.30
2022-10-25T11:40:17.770Z,4.78
2022-10-25T11:42:51.013Z,3.15
2022-10-25T11:45:44.116Z,3.15
2022-10-25T11:48:45.389Z,2.33
2022-10-25T11:51:48.101Z,2.30
2022-10-25T11:54:40.451Z,3.65
2022-10-25T11:57:39.514Z,4.47
2022-10-25T12:00:19.056Z,2.30
2022-10-25T12:02:58.323Z,4.40
2022-10-25T12:06:22.243Z,4.40
2022-10-25T12:09:45.315Z,3.78
2022-10-25T12:12:20.826Z,2.00
2022-10-25T12:15:00.219Z,2.50
2022-10-25T12:17:35.265Z,3.05
2022-10-25T12:20:07.526Z,1.95
2022-10-25T12:22:44.034Z,3.13
2022-10-25T12:25:40.248Z,2.28
2022-10-25T12:28:47.100Z,1.83
2022-10-25T12:31:33.275Z,1.65
2022-10-25T12:34:16.296Z,2.15
2022-10-25T12:37:14.831Z,5.45
2022-10-25T12:39:46.753Z,4.25
2022-10-25T12:43:13.487Z,2.60
2022-10-25T12:45:57.503Z,1.80
2022-10-25T12:48:58.297Z,2.55
2022-10-25T12:51:56.039Z,3.05
2022-10-25T12:54:39.399Z,2.78
2022-10-25T12:57:29.499Z,2.47
2022-10-25T13:00:32.813Z,2.95
2022-10-25T13:03:27.453Z,3.50
2022-10-25T13:06:28.221Z,4.65
2022-10-25T13:09:13.151Z,3.42
2022-10-25T13:12:19.038Z,3.67
2022-10-25T13:14:56.123Z,2.65
2022-10-25T13:17:23.302Z,2.45
2022-10-25T13:20:14.749Z,4.55
2022-10-25T13:22:43.408Z,5.55
2022-10-25T13:25:13.299Z,3.05
2022-10-25T13:28:15.656Z,3.42
2022-10-25T13:30:44.211Z,4.15
2022-10-25T13:33:22.584Z,5.97
2022-10-25T13:35:49.487Z,7.28
2022-10-25T13:38:33.213Z,4.07
2022-10-25T13:41:15.349Z,3.08
2022-10-25T13:44:06.730Z,4.72
2022-10-25T13:46:41.367Z,2.83
2022-10-25T13:49:36.839Z,4.10
2022-10-25T13:52:20.942Z,3.83
2022-10-25T13:54:53.580Z,6.95
2022-10-25T13:57:53.365Z,5.18
2022-10-25T14:00:40.770Z,5.18
2022-10-25T14:03:13.053Z,2.65
2022-10-25T14:06:13.964Z,3.67
2022-10-25T14:08:44.520Z,4.00
2022-10-25T14:11:48.462Z,6.13
2022-10-25T14:14:35.077Z,5.93
2022-10-25T14:17:19.100Z,9.73
2022-10-25T14:19:51.696Z,3.97
2022-10-25T14:22:41.096Z,7.75
2022-10-25T14:25:18.190Z,5.72
2022-10-25T14:27:45.403Z,4.55
2022-10-25T14:30:25.570Z,4.10
2022-10-25T14:33:19.197Z,2.78
2022-10-25T14:35:50.556Z,7.70
2022-10-25T14:38:30.938Z,2.63
2022-10-25T14:41:10.879Z,5.88
2022-10-25T14:43:41.534Z,1.98
2022-10-25T14:46:15.412Z,6.20
2022-10-25T14:48:46.937Z,3.38
2022-10-25T14:51:23.871Z,4.10
2022-10-25T14:54:08.277Z,2.90
2022-10-25T14:56:53.144Z,3.22
2022-10-25T14:59:44.325Z,1.77
2022-10-25T15:02:25.061Z,5.65
2022-10-25T15:04:57.322Z,2.00
2022-10-25T15:07:53.949Z,2.90
2022-10-25T15:10:41.029Z,3.88
2022-10-25T15:13:51.999Z,2.70
2022-10-25T15:16:41.267Z,1.80
2022-10-25T15:19:15.512Z,2.60
2022-10-25T15:21:52.467Z,1.88
2022-10-25T15:24:26.669Z,2.65
2022-10-25T15:27:05.932Z,3.17
2022-10-25T15:29:42.128Z,1.48
2022-10-25T15:32:15.480Z,2.50
2022-10-25T15:34:52.118Z,1.27
2022-10-25T15:37:22.575Z,1.45
2022-10-25T15:39:53.668Z,1.88
2022-10-25T15:42:23.893Z,1.98
2022-10-25T15:44:51.135Z,1.52
2022-10-25T15:47:32.470Z,1.42
2022-10-25T15:50:07.646Z,1.13
2022-10-25T15:52:34.559Z,2.05
2022-10-25T15:55:05.418Z,1.38
2022-10-25T15:57:32.330Z,1.27
2022-10-25T15:59:59.230Z,2.78
2022-10-25T16:02:32.029Z,2.50
2022-10-25T16:04:59.033Z,2.35
2022-10-25T16:07:26.272Z,0.82
2022-10-25T16:09:53.166Z,1.85
2022-10-25T16:12:29.063Z,1.35
2022-10-25T16:14:56.456Z,1.55
2022-10-25T16:17:24.841Z,1.20
2022-10-25T16:19:52.151Z,1.48
2022-10-25T16:22:19.163Z,1.48
2022-10-25T16:24:46.340Z,1.65
2022-10-25T16:27:14.564Z,1.45
2022-10-25T16:29:41.775Z,2.40
2022-10-25T16:32:11.696Z,2.00
2022-10-25T16:34:42.440Z,1.00
2022-10-25T16:37:11.888Z,1.05
2022-10-25T16:39:39.178Z,1.95
2022-10-25T16:42:34.272Z,1.65
2022-10-25T16:45:02.754Z,1.20
2022-10-25T16:47:29.653Z,0.73
2022-10-25T16:49:56.591Z,2.58
2022-10-25T16:52:24.090Z,1.23
2022-10-25T16:54:51.216Z,1.33
2022-10-25T16:57:18.161Z,1.90
2022-10-25T16:59:48.063Z,1.65
2022-10-25T17:02:21.720Z,2.40
2022-10-25T17:04:49.138Z,1.20
2022-10-25T17:07:16.284Z,1.42
2022-10-25T17:09:44.046Z,2.20
2022-10-25T17:12:12.525Z,2.35
2022-10-25T17:14:39.778Z,2.33
2022-10-25T17:17:08.877Z,3.63
2022-10-25T17:19:36.369Z,4.85
2022-10-25T17:22:03.639Z,2.42
2022-10-25T17:24:33.038Z,2.05
2022-10-25T17:27:00.009Z,2.58
2022-10-25T17:29:27.360Z,1.63
2022-10-25T17:31:56.021Z,1.77
2022-10-25T17:34:26.483Z,2.35
2022-10-25T17:36:53.863Z,1.45
2022-10-25T17:39:20.794Z,3.15
2022-10-25T17:41:47.731Z,3.35
2022-10-25T17:44:14.627Z,2.95
2022-10-25T17:46:41.741Z,2.80
2022-10-25T17:49:09.551Z,1.95
2022-10-25T17:51:36.517Z,3.13
2022-10-25T17:54:04.245Z,2.53
2022-10-25T17:59:05.697Z,3.33
2022-10-25T18:01:35.217Z,3.65
2022-10-25T18:04:02.537Z,3.05
2022-10-25T18:06:30.923Z,2.95
2022-10-25T18:09:00.058Z,2.97
2022-10-25T18:11:28.497Z,3.47
2022-10-25T18:13:59.387Z,2.40
2022-10-25T18:16:30.671Z,2.65
2022-10-25T18:19:01.487Z,1.90
2022-10-25T18:21:29.767Z,2.58
2022-10-25T18:24:05.014Z,2.42
2022-10-25T18:26:33.585Z,2.17
2022-10-25T18:29:00.758Z,3.88
2022-10-25T18:31:28.109Z,2.25
2022-10-25T18:33:56.235Z,2.22
2022-10-25T18:36:23.178Z,1.92
2022-10-25T18:38:51.399Z,1.65
2022-10-25T18:41:25.639Z,2.13
2022-10-25T18:43:54.335Z,1.88
2022-10-25T18:46:22.136Z,1.50
2022-10-25T18:48:53.922Z,1.98
2022-10-25T18:51:23.670Z,1.90
2022-10-25T18:54:02.601Z,2.70
2022-10-25T18:56:30.992Z,2.38
2022-10-25T18:58:59.113Z,2.00
2022-10-25T19:01:32.558Z,2.60
2022-10-25T19:04:02.518Z,1.98
2022-10-25T19:06:30.441Z,1.52
2022-10-25T19:08:57.553Z,1.50
2022-10-25T19:11:24.670Z,1.85
2022-10-25T19:14:00.103Z,2.33
2022-10-25T19:16:27.062Z,1.63
2022-10-25T19:18:54.074Z,1.95
2022-10-25T19:21:21.072Z,1.60
2022-10-25T19:23:48.298Z,1.80
2022-10-25T19:26:19.523Z,1.55
2022-10-25T19:28:46.974Z,1.60
2022-10-25T19:31:17.822Z,2.42
2022-10-25T19:33:50.493Z,1.90
2022-10-25T19:36:19.134Z,1.35
2022-10-25T19:38:48.342Z,2.30
2022-10-25T19:41:22.902Z,1.75
2022-10-25T19:43:50.863Z,1.25
2022-10-25T19:46:18.875Z,1.35
2022-10-25T19:48:46.303Z,1.92
2022-10-25T19:51:20.237Z,2.60
2022-10-25T19:53:47.656Z,1.30
2022-10-25T19:56:21.334Z,1.45
2022-10-25T19:58:49.484Z,1.58
2022-10-25T20:01:21.043Z,1.25
2022-10-25T20:03:57.595Z,1.60
2022-10-25T20:06:31.551Z,1.17
2022-10-25T20:09:01.042Z,1.25
2022-10-25T20:11:29.200Z,2.42
2022-10-25T20:13:58.816Z,0.95
2022-10-25T20:16:27.136Z,2.67
2022-10-25T20:18:54.826Z,1.42
2022-10-25T20:21:30.570Z,1.42
2022-10-25T20:24:01.070Z,1.23
2022-10-25T20:26:44.594Z,1.02
2022-10-25T20:29:21.208Z,1.88
2022-10-25T20:31:50.086Z,1.23
2022-10-25T20:34:21.543Z,1.50
2022-10-25T20:36:49.296Z,1.92
2022-10-25T20:39:16.781Z,1.10
2022-10-25T20:41:43.861Z,1.52
2022-10-25T20:44:11.316Z,1.23
2022-10-25T20:46:38.209Z,1.50
2022-10-25T20:49:07.380Z,1.55
2022-10-25T20:51:35.110Z,1.40
2022-10-25T20:54:09.189Z,1.35
2022-10-25T20:56:37.169Z,1.20
2022-10-25T20:59:04.480Z,1.40
2022-10-25T21:01:31.665Z,1.35
2022-10-25T21:03:58.669Z,1.40
2022-10-25T21:06:25.670Z,1.23
2022-10-25T21:08:52.538Z,1.10
2022-10-25T21:11:19.428Z,1.00
2022-10-25T21:13:46.356Z,1.30
2022-10-25T21:16:16.198Z,1.20
2022-10-25T21:18:44.187Z,1.48
2022-10-25T21:21:18.527Z,1.15
2022-10-25T21:23:47.472Z,1.38
2022-10-25T21:26:17.081Z,1.23
2022-10-25T21:28:44.042Z,1.15
2022-10-25T21:31:14.495Z,1.08
2022-10-25T21:33:49.816Z,1.13
2022-10-25T21:36:19.811Z,1.30
2022-10-25T21:38:47.194Z,1.70
2022-10-25T21:41:20.527Z,0.90
2022-10-25T21:43:49.996Z,1.13
2022-10-25T21:46:19.294Z,1.23
2022-10-25T21:48:52.743Z,1.02
2022-10-25T21:51:26.811Z,1.85
2022-10-25T21:53:55.160Z,1.02
2022-10-25T21:56:31.968Z,1.48
2022-10-25T21:59:00.320Z,1.23
2022-10-25T22:01:30.096Z,1.25
2022-10-25T22:03:57.475Z,1.08
2022-10-25T22:06:27.404Z,1.00
2022-10-25T22:08:55.844Z,1.20
2022-10-25T22:11:30.226Z,1.58
2022-10-25T22:14:06.573Z,1.45
2022-10-25T22:16:34.086Z,1.10
2022-10-25T22:19:05.268Z,1.33
2022-10-25T22:21:39.143Z,0.80
2022-10-25T22:24:08.498Z,1.10
2022-10-25T22:26:38.223Z,1.13
2022-10-25T22:29:05.601Z,1.25
2022-10-25T22:31:33.174Z,1.30
2022-10-25T22:34:03.839Z,1.40
2022-10-25T22:36:48.593Z,1.10
2022-10-25T22:39:16.560Z,1.15
2022-10-25T22:41:43.524Z,1.00
2022-10-25T22:44:10.589Z,1.10
2022-10-25T22:46:37.504Z,1.17
2022-10-25T22:49:09.002Z,1.15
2022-10-25T22:51:37.434Z,1.10
2022-10-25T22:54:05.958Z,1.20
2022-10-25T22:56:33.287Z,0.82
2022-10-25T22:59:03.463Z,1.00
2022-10-25T23:01:34.168Z,0.90
2022-10-25T23:04:04.234Z,1.10
2022-10-25T23:06:34.993Z,0.93
2022-10-25T23:09:06.061Z,1.63
2022-10-25T23:11:36.340Z,1.13
2022-10-25T23:14:05.091Z,1.10
2022-10-25T23:16:32.214Z,0.90
2022-10-25T23:18:59.225Z,1.23
2022-10-25T23:21:30.211Z,1.15
2022-10-25T23:23:59.687Z,1.23
2022-10-25T23:26:31.785Z,0.85
2022-10-25T23:29:00.148Z,1.05
2022-10-25T23:31:28.573Z,1.17
2022-10-25T23:33:58.844Z,0.95
2022-10-25T23:36:29.555Z,1.13
2022-10-25T23:38:58.129Z,1.17
2022-10-25T23:41:25.042Z,0.90
2022-10-25T23:43:54.587Z,1.20
2022-10-25T23:46:24.206Z,1.10
2022-10-25T23:48:51.068Z,1.63
2022-10-25T23:51:18.873Z,0.95
2022-10-25T23:53:45.999Z,1.00
2022-10-25T23:56:14.101Z,1.00
2022-10-25T23:58:41.386Z,0.95
